Monday, April 24, 2017, 10:44 PM EDT

KSHD, Staunton / Shenandoah

Location: Weyers Cave, VA, United States Lat: 38.267
Local Time: 10:44 PM EDT ( 2:44 GMT) Lon: -78.9
Time Zone: US/Eastern Elev: 1200 ft

Show me the last for .
Show Decoded

2017-04-24 22:35 METAR KSHD 250235Z AUTO 01007KT 10SM RA OVC007 09/08 A2999 RMK AO2 T00850078 =
2017-04-24 22:15 METAR KSHD 250215Z AUTO 02009KT 10SM DZ OVC007 09/08 A2999 RMK AO2 T00850077 =
2017-04-24 21:55 METAR KSHD 250155Z AUTO 02009KT 10SM DZ OVC007 09/08 A3000 RMK AO2 P0004
                 T00850078 =
2017-04-24 21:35 METAR KSHD 250135Z AUTO 02008KT 10SM DZ OVC007 09/08 A3001 RMK AO2 P0004
                 T00870081 =
2017-04-24 21:15 METAR KSHD 250115Z AUTO 03005KT 7SM RA OVC009 09/08 A3001 RMK AO2 P0002
                 T00860080 =
2017-04-24 20:55 METAR KSHD 250055Z AUTO 03008KT 10SM -RA OVC009 09/08 A3000 RMK AO2 P0004
                 T00880080 =
2017-04-24 20:35 METAR KSHD 250035Z AUTO 02007KT 10SM RA OVC009 09/08 A3000 RMK AO2 P0003
                 T00890080 =
2017-04-24 20:15 METAR KSHD 250015Z AUTO 02009KT 10SM -RA OVC009 09/08 A3000 RMK AO2 T00900082 =
2017-04-24 19:55 METAR KSHD 242355Z AUTO 02009G14KT 10SM RA BKN007 OVC012 09/08 A3000 RMK AO2
                 P0005 60029 T00910084 10106 20091 =
2017-04-24 19:35 METAR KSHD 242335Z AUTO 02007KT 10SM RA OVC007 10/09 A3000 RMK AO2 P0004
                 T00950087 =
2017-04-24 19:15 METAR KSHD 242315Z AUTO 02009KT 7SM -RA OVC007 10/09 A2999 RMK AO2 P0003
                 T00950089 =
2017-04-24 18:55 METAR KSHD 242255Z AUTO 02007KT 5SM RA OVC007 10/09 A3000 RMK AO2 P0004
                 T00970091 =
2017-04-24 18:35 METAR KSHD 242235Z AUTO 01007KT 5SM DZ OVC007 10/10 A2999 RMK AO2 P0002
                 T01000095 =
2017-04-24 18:15 METAR KSHD 242215Z AUTO 36006KT 5SM +DZ OVC007 10/10 A2999 RMK AO2 P0002
                 T01000095 =
2017-04-24 17:55 METAR KSHD 242155Z AUTO 02009KT 3SM RA OVC007 10/10 A2999 RMK AO2 P0004
                 T01010096 =
2017-04-24 17:35 METAR KSHD 242135Z AUTO 02007KT 2 1/2SM +RA OVC007 10/10 A2999 RMK AO2 P0003
                 T01030097 =
2017-04-24 17:15 METAR KSHD 242115Z AUTO 02008KT 3SM -RA OVC007 10/10 A2999 RMK AO2 T01030098 =
2017-04-24 16:55 METAR KSHD 242055Z AUTO 01005KT 4SM DZ OVC007 10/10 A2998 RMK AO2 P0004 60016
                 T01040100 =
2017-04-24 16:35 METAR KSHD 242035Z AUTO 36006KT 2SM +DZ OVC007 10/10 A2999 RMK AO2 P0002
                 T01030098 =
2017-04-24 16:15 METAR KSHD 242015Z AUTO 02006KT 5SM DZ OVC007 10/10 A2999 RMK AO2 P0001
                 T01040097 =
2017-04-24 15:55 METAR KSHD 241955Z AUTO 02008KT 7SM RA OVC007 11/10 A3000 RMK AO2 P0006
                 T01050099 =
2017-04-24 15:35 METAR KSHD 241935Z AUTO 02008KT 4SM -RA OVC005 10/10 A3000 RMK AO2 P0005
                 T01040099 =
2017-04-24 15:15 METAR KSHD 241915Z AUTO 01005KT 2 1/2SM -RA OVC005 11/10 A3000 RMK AO2 P0001
                 T01050100 =
2017-04-24 14:55 METAR KSHD 241855Z AUTO 36005KT 2SM +RA OVC005 11/10 A3001 RMK AO2 P0006
                 T01050100 =
2017-04-24 14:35 METAR KSHD 241835Z AUTO 36006KT 2SM +DZ OVC005 10/10 A3001 RMK AO2 P0004
                 T01030099 =
2017-04-24 14:15 METAR KSHD 241815Z AUTO 36006KT 3SM RA OVC005 11/10 A3002 RMK AO2 P0001
                 T01050098 =
2017-04-24 13:55 METAR KSHD 241755Z AUTO 02006KT 3SM -RA OVC007 11/10 A3002 RMK AO2 P0008 60028
                 T01050098 10105 20080 =
2017-04-24 13:35 METAR KSHD 241735Z AUTO 01006KT 3SM -RA OVC007 10/10 A3003 RMK AO2 P0006
                 T01010095 =
2017-04-24 13:15 METAR KSHD 241715Z AUTO 36006KT 4SM -RA OVC007 10/09 A3004 RMK AO2 P0002
                 T00970091 =
2017-04-24 12:55 METAR KSHD 241655Z AUTO 01006KT 2SM RA OVC007 10/09 A3005 RMK AO2 P0003
                 T00950090 =
2017-04-24 12:35 METAR KSHD 241635Z AUTO 02007KT 1 3/4SM DZ OVC007 09/09 A3005 RMK AO2 P0001
                 T00940088 =
2017-04-24 12:15 METAR KSHD 241615Z AUTO 02006KT 2 1/2SM DZ OVC007 09/09 A3006 RMK AO2 T00930086
                 =
2017-04-24 11:55 METAR KSHD 241555Z AUTO 02006KT 3SM DZ OVC007 09/09 A3006 RMK AO2 P0004
                 T00930086 =
2017-04-24 11:35 METAR KSHD 241535Z AUTO 02006KT 4SM DZ OVC007 09/09 A3006 RMK AO2 P0003
                 T00920087 =
2017-04-24 11:15 METAR KSHD 241515Z AUTO 03008KT 4SM -RA OVC007 09/08 A3006 RMK AO2 P0002
                 T00900084 =
2017-04-24 10:55 METAR KSHD 241455Z AUTO 02008KT 4SM DZ OVC007 09/09 A3007 RMK AO2 P0003 60012
                 T00900085 =
2017-04-24 10:35 METAR KSHD 241435Z AUTO 03009KT 3SM RA OVC007 09/08 A3007 RMK AO2 P0002
                 T00870083 =
2017-04-24 10:15 METAR KSHD 241415Z AUTO 03007KT 4SM +RA OVC007 09/08 A3007 RMK AO2 P0001
                 T00860081 =
2017-04-24 09:55 METAR KSHD 241355Z AUTO 01007KT 4SM DZ OVC007 09/08 A3008 RMK AO2 P0001
                 T00860080 =
2017-04-24 09:35 METAR KSHD 241335Z AUTO 03006KT 5SM DZ OVC005 09/08 A3007 RMK AO2 P0001
                 T00850080 =
2017-04-24 09:15 METAR KSHD 241315Z AUTO 01005KT 5SM DZ OVC005 08/08 A3008 RMK AO2 P0001
                 T00820079 =
2017-04-24 08:55 METAR KSHD 241255Z AUTO 02005KT 4SM +RA OVC005 08/08 A3008 RMK AO2 P0008
                 T00800076 =
2017-04-24 08:35 METAR KSHD 241235Z AUTO 02006KT 4SM RA OVC005 08/08 A3008 RMK AO2 P0006
                 T00810077 =
2017-04-24 08:15 METAR KSHD 241215Z AUTO 01004KT 4SM DZ OVC007 08/08 A3008 RMK AO2 T00810076 =
2017-04-24 07:55 METAR KSHD 241155Z AUTO 03005KT 5SM RA BKN007 OVC012 08/08 A3006 RMK AO2 P0002
                 60043 70048 T00820076 10086 20080 =
2017-04-24 07:35 METAR KSHD 241135Z AUTO 02007KT 7SM DZ OVC008 08/08 A3006 RMK AO2 P0001
                 T00820075 =
2017-04-24 07:15 METAR KSHD 241115Z AUTO 02006KT 10SM -RA BKN008 OVC013 08/08 A3005 RMK AO2
                 T00830077 =
2017-04-24 06:55 METAR KSHD 241055Z AUTO 01004KT 10SM -DZ OVC011 08/08 A3005 RMK AO2 P0003
                 T00820077 =
2017-04-24 06:35 METAR KSHD 241035Z AUTO 01005KT 7SM -RA OVC011 08/08 A3005 RMK AO2 P0003
                 T00810076 =
2017-04-24 06:15 METAR KSHD 241015Z AUTO 02004KT 5SM -RA BKN005 OVC010 08/08 A3005 RMK AO2 P0001
                 T00810078 =
2017-04-24 05:55 METAR KSHD 240955Z AUTO 02004KT 5SM -RA SCT005 BKN011 OVC032 08/08 A3005 RMK AO2
                 P0009 T00800076 =
2017-04-24 05:35 METAR KSHD 240935Z AUTO 01005KT 5SM RA SCT012 SCT030 OVC038 08/08 A3005 RMK AO2
                 P0006 T00800076 =
2017-04-24 05:15 METAR KSHD 240915Z AUTO 03006KT 5SM RA SCT014 BKN027 OVC040 08/08 A3004 RMK AO2
                 P0003 T00800077 =
2017-04-24 04:55 METAR KSHD 240855Z AUTO 01003KT 4SM RA BKN018 OVC027 08/08 A3005 RMK AO2 P0015
                 60029 T00800077 =
2017-04-24 04:35 METAR KSHD 240835Z AUTO 02003KT 4SM RA BKN015 BKN021 OVC032 08/08 A3006 RMK AO2
                 P0007 T00800075 =
2017-04-24 04:15 METAR KSHD 240815Z AUTO 04005KT 7SM RA SCT003 BKN021 OVC042 08/08 A3005 RMK AO2
                 P0002 T00810076 =
2017-04-24 03:55 METAR KSHD 240755Z AUTO 04004KT 5SM -RA SCT003 BKN021 OVC044 08/08 A3005 RMK AO2
                 P0009 T00820080 =
2017-04-24 03:35 METAR KSHD 240735Z AUTO 02005KT 5SM -RA SCT002 BKN028 OVC049 08/08 A3005 RMK AO2
                 P0007 T00830080 =
2017-04-24 03:15 METAR KSHD 240715Z AUTO 01004KT 5SM RA OVC026 08/08 A3005 RMK AO2 P0004
                 T00830078 =
2017-04-24 02:55 METAR KSHD 240655Z AUTO 02004KT 7SM -RA BKN026 OVC031 08/08 A3006 RMK AO2 P0005
                 T00830076 =
2017-04-24 02:35 METAR KSHD 240635Z AUTO 02003KT 10SM -RA BKN026 OVC031 08/08 A3007 RMK AO2 P0003
                 T00830075 =
2017-04-24 02:15 METAR KSHD 240615Z AUTO 01003KT 10SM -RA BKN026 BKN046 OVC070 09/08 A3007 RMK
                 AO2 P0001 T00850075 =
2017-04-24 01:55 METAR KSHD 240555Z AUTO 01004KT 7SM RA BKN080 OVC085 09/08 A3008 RMK AO2 P0004
                 60005 T00860075 10105 20086 401300070 =
2017-04-24 01:35 METAR KSHD 240535Z AUTO 36003KT 10SM -RA BKN090 09/08 A3008 RMK AO2 P0002
                 T00870076 =
2017-04-24 01:15 METAR KSHD 240515Z AUTO 00000KT 10SM DZ OVC090 09/08 A3009 RMK AO2 T00900075 =
2017-04-24 00:55 METAR KSHD 240455Z AUTO 00000KT 10SM -DZ SCT029 SCT080 OVC090 09/07 A3009 RMK
                 AO2 T00900074 =
2017-04-24 00:35 METAR KSHD 240435Z AUTO 00000KT 10SM -DZ OVC090 09/08 A3009 RMK AO2 T00870077 =
2017-04-24 00:15 METAR KSHD 240415Z AUTO 00000KT 10SM -DZ SCT060 OVC100 09/08 A3009 RMK AO2
                 T00900076 =
2017-04-23 23:55 METAR KSHD 240355Z AUTO 00000KT 10SM -RA SCT060 OVC100 09/08 A3009 RMK AO2 P0001
                 T00870079 =
2017-04-23 23:35 METAR KSHD 240335Z AUTO 00000KT 10SM DZ OVC100 09/08 A3010 RMK AO2 P0001
                 T00870076 =
2017-04-23 23:15 METAR KSHD 240315Z AUTO 00000KT 10SM RA SCT075 SCT090 OVC110 09/07 A3010 RMK AO2
                 T00900074 =
2017-04-23 22:55 METAR KSHD 240255Z AUTO 00000KT 10SM RA SCT060 OVC100 09/07 A3011 RMK AO2
                 T00920066 =

Support USWX by starting your Amazon purchase here.